Integrity — WDD7905 — position and weather

sailwx.info

Track history (hours):
 
Tides and Currents Weather Stations Pressure Air Temp Water Temp Dewpoint Dewpoint Depression Visibility Wind Speed Wind Dir Waves Ship Positions

Integrity

Owner: Intrepid Ship Management, jacksonville, FL. More information available from US FCC via Universal Licensing System and Coast Guard Vessel Documentation Center.

Last reported at 2017-Nov-17 21:37 UTC. Time now 2017-Nov-18 19:38 UTC.
Position N 39°28' W 073°56'.

Length 208 m; draft 8.5 m.

Type: Towing. MMSI: 368247000.

Date/timePositionNaut miles runAvg speedWind from/ knotsBaromVisibWave heightAir tempDewpointWater temp
2017-Nov-17 21:37N 39°28' W 073°56'110.9
2017-Nov-17 21:30N 39°29' W 073°56'610.9
2017-Nov-17 21:00N 39°35' W 073°54'611.0
2017-Nov-17 20:26N 39°41' W 073°52'510.8
2017-Nov-17 20:00N 39°45' W 073°51'611.2
2017-Nov-17 19:29N 39°51' W 073°50'2710.3
2017-Nov-17 16:51N 40°18' W 073°49'3 7.1
2017-Nov-17 16:29N 40°21' W 073°49'4 7.1
2017-Nov-17 15:59N 40°24' W 073°50'4 6.8
2017-Nov-17 15:24N 40°28' W 073°53'8 9.8
2017-Nov-17 14:37N 40°32' W 074°01'111.1
2017-Nov-17 14:30N 40°33' W 074°02'510.7
2017-Nov-17 14:01N 40°38' W 074°03'0 0.6
2017-Nov-17 13:29N 40°38' W 074°04'0 0.3
2017-Nov-17 12:59N 40°38' W 074°04'0 0.1
2017-Nov-17 12:29N 40°38' W 074°04'0 0.1
2017-Nov-17 11:59N 40°38' W 074°04'0 0.0
2017-Nov-17 11:29N 40°39' W 074°04'0 0.0
2017-Nov-17 10:59N 40°39' W 074°04'0 0.3
2017-Nov-17 10:29N 40°38' W 074°04'0 0.1
2017-Nov-17 09:59N 40°38' W 074°04'0 0.2
2017-Nov-17 09:29N 40°38' W 074°04'0 0.2
2017-Nov-17 08:59N 40°38' W 074°04'0 0.1
2017-Nov-17 08:29N 40°38' W 074°04'0 0.0
2017-Nov-17 07:59N 40°38' W 074°04'0 0.1
2017-Nov-17 07:29N 40°38' W 074°04'0 0.0
2017-Nov-17 06:59N 40°38' W 074°04'0 0.0
2017-Nov-17 06:29N 40°38' W 074°04'0 0.0
2017-Nov-17 05:59N 40°38' W 074°04'0 0.0
2017-Nov-17 05:29N 40°38' W 074°04'0 0.1
2017-Nov-17 04:59N 40°38' W 074°04'0 0.0
2017-Nov-17 04:29N 40°38' W 074°04'0 0.1
2017-Nov-17 03:59N 40°38' W 074°04'0 0.0
2017-Nov-17 03:29N 40°38' W 074°04'0 0.0
2017-Nov-17 02:59N 40°38' W 074°04'0 0.0
2017-Nov-17 02:29N 40°38' W 074°04'0 0.1
2017-Nov-17 01:59N 40°38' W 074°04'0 0.1
2017-Nov-17 01:29N 40°38' W 074°04'0 0.4
2017-Nov-17 00:59N 40°38' W 074°04'0 0.1
2017-Nov-17 00:29N 40°38' W 074°04'0 0.0
2017-Nov-16 23:59N 40°38' W 074°04'0 0.0
2017-Nov-16 23:29N 40°38' W 074°04'0 0.0
2017-Nov-16 22:59N 40°38' W 074°04'0 0.0
2017-Nov-16 22:29N 40°38' W 074°04'0 0.0
2017-Nov-16 21:59N 40°38' W 074°04'0 0.2
2017-Nov-16 21:29N 40°38' W 074°04'0 0.2
2017-Nov-16 20:59N 40°38' W 074°04'0 0.2
2017-Nov-16 20:29N 40°38' W 074°04'0 0.1
2017-Nov-16 19:59N 40°38' W 074°04'0 0.1
2017-Nov-16 19:29N 40°38' W 074°04'0 0.1
2017-Nov-16 19:00N 40°38' W 074°04'0 0.1
2017-Nov-16 18:30N 40°38' W 074°04'1 2.9
2017-Nov-16 18:00N 40°37' W 074°03'4 8.2
2017-Nov-16 17:30N 40°33' W 074°01'4 8.8
2017-Nov-16 17:00N 40°30' W 073°57'2 2.7
2017-Nov-16 16:14N 40°28' W 073°58'14 0.4
2017-Nov-15 03:57N 40°33' W 074°15'3 0.2
2017-Nov-14 11:40N 40°35' W 074°12'0 0.0
2017-Nov-14 11:28N 40°35' W 074°12'0 0.0
2017-Nov-14 10:28N 40°35' W 074°12'0 0.0
2017-Nov-14 09:22N 40°35' W 074°12'0 0.0
2017-Nov-14 08:58N 40°35' W 074°12'0 0.0
2017-Nov-14 08:22N 40°35' W 074°12'0 0.0
2017-Nov-14 07:58N 40°35' W 074°12'0 0.0
2017-Nov-14 07:28N 40°35' W 074°12'0 0.0
2017-Nov-14 06:58N 40°35' W 074°12'0 0.0
2017-Nov-14 06:28N 40°35' W 074°12'0 0.0
2017-Nov-14 05:58N 40°35' W 074°12'0 0.0
2017-Nov-14 05:28N 40°35' W 074°12'0 0.0
2017-Nov-14 04:58N 40°35' W 074°12'0 0.0
2017-Nov-14 03:22N 40°35' W 074°12'0 0.0
2017-Nov-14 02:58N 40°35' W 074°12'0 0.0
2017-Nov-12 21:46N 40°35' W 074°12'0 0.0
2017-Nov-12 21:22N 40°35' W 074°12'0 0.0
2017-Nov-12 20:58N 40°35' W 074°12'0 0.0
2017-Nov-12 20:28N 40°35' W 074°12'0 0.0
2017-Nov-12 19:52N 40°35' W 074°12'0 0.0
2017-Nov-12 18:40N 40°35' W 074°12'0 0.0
2017-Nov-12 18:22N 40°35' W 074°12'0 0.0
2017-Nov-12 17:58N 40°35' W 074°12'0 0.0
2017-Nov-12 17:19N 40°35' W 074°12'0 0.0
2017-Nov-12 17:00N 40°35' W 074°12'0 0.1
2017-Nov-12 16:30N 40°35' W 074°12'1 3.0
2017-Nov-12 16:01N 40°37' W 074°12'3 5.6
2017-Nov-12 15:30N 40°39' W 074°09'4 7.5
2017-Nov-12 15:00N 40°39' W 074°05'5 9.2
2017-Nov-12 14:31N 40°35' W 074°02'5 9.4
2017-Nov-12 14:00N 40°31' W 073°59'5 9.6
2017-Nov-12 13:30N 40°28' W 073°54'3 5.8
2017-Nov-12 12:57N 40°25' W 073°55'0 0.1
2017-Nov-12 12:30N 40°25' W 073°55'0 0.0
2017-Nov-12 11:54N 40°25' W 073°55'0 0.0
2017-Nov-12 11:30N 40°25' W 073°55'0 0.0
2017-Nov-12 10:57N 40°25' W 073°55'0 0.0
2017-Nov-12 10:30N 40°25' W 073°55'0 0.0
2017-Nov-12 10:00N 40°25' W 073°55'0 0.0
2017-Nov-12 09:30N 40°25' W 073°55'0 0.0
2017-Nov-12 09:00N 40°25' W 073°55'0 0.0
2017-Nov-12 08:30N 40°25' W 073°55'0 0.1
2017-Nov-12 08:00N 40°25' W 073°55'0 0.1
2017-Nov-12 07:30N 40°25' W 073°56'0 0.0
2017-Nov-12 04:03N 40°25' W 073°56'0 0.1
2017-Nov-12 03:54N 40°25' W 073°56'0 0.1
2017-Nov-12 03:27N 40°25' W 073°56'0 0.1
2017-Nov-12 03:00N 40°25' W 073°55'0 0.0
2017-Nov-12 02:30N 40°25' W 073°55'0 0.0
2017-Nov-12 01:57N 40°25' W 073°55'0 0.0
2017-Nov-12 01:27N 40°25' W 073°55'0 0.0
2017-Nov-12 00:57N 40°25' W 073°55'0 0.1
2017-Nov-12 00:27N 40°25' W 073°55'0 0.1
2017-Nov-12 00:00N 40°25' W 073°55'0 0.0
2017-Nov-11 23:30N 40°25' W 073°55'0 0.0
2017-Nov-11 22:57N 40°25' W 073°55'0 0.0
2017-Nov-11 22:24N 40°25' W 073°55'0 0.1
2017-Nov-11 21:57N 40°25' W 073°55'0 0.0
2017-Nov-11 21:12N 40°25' W 073°55'0 0.0
2017-Nov-11 20:54N 40°25' W 073°55'0 0.0
2017-Nov-11 19:54N 40°25' W 073°55'0 0.2
2017-Nov-11 19:30N 40°25' W 073°55'3 6.8
2017-Nov-11 19:00N 40°24' W 073°51'5 8.8
2017-Nov-11 18:27N 40°21' W 073°46'  
Track history (hours):
 
Tides and Currents Weather Stations Pressure Air Temp Water Temp Dewpoint Dewpoint Depression Visibility Wind Speed Wind Dir Waves Ship Positions

Integrity

Owner: Intrepid Ship Management, jacksonville, FL. More information available from US FCC via Universal Licensing System and Coast Guard Vessel Documentation Center.

Last reported at 2017-Nov-17 21:37 UTC. Time now 2017-Nov-18 19:38 UTC.
Position N 39°28' W 073°56'.

Length 208 m; draft 8.5 m.

Type: Towing. MMSI: 368247000.

Date/timePositionNaut miles runAvg speedWind from/ knotsBaromVisibWave heightAir tempDewpointWater temp
2017-Nov-17 21:37N 39°28' W 073°56'110.9
2017-Nov-17 21:30N 39°29' W 073°56'610.9
2017-Nov-17 21:00N 39°35' W 073°54'611.0
2017-Nov-17 20:26N 39°41' W 073°52'510.8
2017-Nov-17 20:00N 39°45' W 073°51'611.2
2017-Nov-17 19:29N 39°51' W 073°50'2710.3
2017-Nov-17 16:51N 40°18' W 073°49'3 7.1
2017-Nov-17 16:29N 40°21' W 073°49'4 7.1
2017-Nov-17 15:59N 40°24' W 073°50'4 6.8
2017-Nov-17 15:24N 40°28' W 073°53'8 9.8
2017-Nov-17 14:37N 40°32' W 074°01'111.1
2017-Nov-17 14:30N 40°33' W 074°02'510.7
2017-Nov-17 14:01N 40°38' W 074°03'0 0.6
2017-Nov-17 13:29N 40°38' W 074°04'0 0.3
2017-Nov-17 12:59N 40°38' W 074°04'0 0.1
2017-Nov-17 12:29N 40°38' W 074°04'0 0.1
2017-Nov-17 11:59N 40°38' W 074°04'0 0.0
2017-Nov-17 11:29N 40°39' W 074°04'0 0.0
2017-Nov-17 10:59N 40°39' W 074°04'0 0.3
2017-Nov-17 10:29N 40°38' W 074°04'0 0.1
2017-Nov-17 09:59N 40°38' W 074°04'0 0.2
2017-Nov-17 09:29N 40°38' W 074°04'0 0.2
2017-Nov-17 08:59N 40°38' W 074°04'0 0.1
2017-Nov-17 08:29N 40°38' W 074°04'0 0.0
2017-Nov-17 07:59N 40°38' W 074°04'0 0.1
2017-Nov-17 07:29N 40°38' W 074°04'0 0.0
2017-Nov-17 06:59N 40°38' W 074°04'0 0.0
2017-Nov-17 06:29N 40°38' W 074°04'0 0.0
2017-Nov-17 05:59N 40°38' W 074°04'0 0.0
2017-Nov-17 05:29N 40°38' W 074°04'0 0.1
2017-Nov-17 04:59N 40°38' W 074°04'0 0.0
2017-Nov-17 04:29N 40°38' W 074°04'0 0.1
2017-Nov-17 03:59N 40°38' W 074°04'0 0.0
2017-Nov-17 03:29N 40°38' W 074°04'0 0.0
2017-Nov-17 02:59N 40°38' W 074°04'0 0.0
2017-Nov-17 02:29N 40°38' W 074°04'0 0.1
2017-Nov-17 01:59N 40°38' W 074°04'0 0.1
2017-Nov-17 01:29N 40°38' W 074°04'0 0.4
2017-Nov-17 00:59N 40°38' W 074°04'0 0.1
2017-Nov-17 00:29N 40°38' W 074°04'0 0.0
2017-Nov-16 23:59N 40°38' W 074°04'0 0.0
2017-Nov-16 23:29N 40°38' W 074°04'0 0.0
2017-Nov-16 22:59N 40°38' W 074°04'0 0.0
2017-Nov-16 22:29N 40°38' W 074°04'0 0.0
2017-Nov-16 21:59N 40°38' W 074°04'0 0.2
2017-Nov-16 21:29N 40°38' W 074°04'0 0.2
2017-Nov-16 20:59N 40°38' W 074°04'0 0.2
2017-Nov-16 20:29N 40°38' W 074°04'0 0.1
2017-Nov-16 19:59N 40°38' W 074°04'0 0.1
2017-Nov-16 19:29N 40°38' W 074°04'0 0.1
2017-Nov-16 19:00N 40°38' W 074°04'0 0.1
2017-Nov-16 18:30N 40°38' W 074°04'1 2.9
2017-Nov-16 18:00N 40°37' W 074°03'4 8.2
2017-Nov-16 17:30N 40°33' W 074°01'4 8.8
2017-Nov-16 17:00N 40°30' W 073°57'2 2.7
2017-Nov-16 16:14N 40°28' W 073°58'14 0.4
2017-Nov-15 03:57N 40°33' W 074°15'3 0.2
2017-Nov-14 11:40N 40°35' W 074°12'0 0.0
2017-Nov-14 11:28N 40°35' W 074°12'0 0.0
2017-Nov-14 10:28N 40°35' W 074°12'0 0.0
2017-Nov-14 09:22N 40°35' W 074°12'0 0.0
2017-Nov-14 08:58N 40°35' W 074°12'0 0.0
2017-Nov-14 08:22N 40°35' W 074°12'0 0.0
2017-Nov-14 07:58N 40°35' W 074°12'0 0.0
2017-Nov-14 07:28N 40°35' W 074°12'0 0.0
2017-Nov-14 06:58N 40°35' W 074°12'0 0.0
2017-Nov-14 06:28N 40°35' W 074°12'0 0.0
2017-Nov-14 05:58N 40°35' W 074°12'0 0.0
2017-Nov-14 05:28N 40°35' W 074°12'0 0.0
2017-Nov-14 04:58N 40°35' W 074°12'0 0.0
2017-Nov-14 03:22N 40°35' W 074°12'0 0.0
2017-Nov-14 02:58N 40°35' W 074°12'0 0.0
2017-Nov-12 21:46N 40°35' W 074°12'0 0.0
2017-Nov-12 21:22N 40°35' W 074°12'0 0.0
2017-Nov-12 20:58N 40°35' W 074°12'0 0.0
2017-Nov-12 20:28N 40°35' W 074°12'0 0.0
2017-Nov-12 19:52N 40°35' W 074°12'0 0.0
2017-Nov-12 18:40N 40°35' W 074°12'0 0.0
2017-Nov-12 18:22N 40°35' W 074°12'0 0.0
2017-Nov-12 17:58N 40°35' W 074°12'0 0.0
2017-Nov-12 17:19N 40°35' W 074°12'0 0.0
2017-Nov-12 17:00N 40°35' W 074°12'0 0.1
2017-Nov-12 16:30N 40°35' W 074°12'1 3.0
2017-Nov-12 16:01N 40°37' W 074°12'3 5.6
2017-Nov-12 15:30N 40°39' W 074°09'4 7.5
2017-Nov-12 15:00N 40°39' W 074°05'5 9.2
2017-Nov-12 14:31N 40°35' W 074°02'5 9.4
2017-Nov-12 14:00N 40°31' W 073°59'5 9.6
2017-Nov-12 13:30N 40°28' W 073°54'3 5.8
2017-Nov-12 12:57N 40°25' W 073°55'0 0.1
2017-Nov-12 12:30N 40°25' W 073°55'0 0.0
2017-Nov-12 11:54N 40°25' W 073°55'0 0.0
2017-Nov-12 11:30N 40°25' W 073°55'0 0.0
2017-Nov-12 10:57N 40°25' W 073°55'0 0.0
2017-Nov-12 10:30N 40°25' W 073°55'0 0.0
2017-Nov-12 10:00N 40°25' W 073°55'0 0.0
2017-Nov-12 09:30N 40°25' W 073°55'0 0.0
2017-Nov-12 09:00N 40°25' W 073°55'0 0.0
2017-Nov-12 08:30N 40°25' W 073°55'0 0.1
2017-Nov-12 08:00N 40°25' W 073°55'0 0.1
2017-Nov-12 07:30N 40°25' W 073°56'0 0.0
2017-Nov-12 04:03N 40°25' W 073°56'0 0.1
2017-Nov-12 03:54N 40°25' W 073°56'0 0.1
2017-Nov-12 03:27N 40°25' W 073°56'0 0.1
2017-Nov-12 03:00N 40°25' W 073°55'0 0.0
2017-Nov-12 02:30N 40°25' W 073°55'0 0.0
2017-Nov-12 01:57N 40°25' W 073°55'0 0.0
2017-Nov-12 01:27N 40°25' W 073°55'0 0.0
2017-Nov-12 00:57N 40°25' W 073°55'0 0.1
2017-Nov-12 00:27N 40°25' W 073°55'0 0.1
2017-Nov-12 00:00N 40°25' W 073°55'0 0.0
2017-Nov-11 23:30N 40°25' W 073°55'0 0.0
2017-Nov-11 22:57N 40°25' W 073°55'0 0.0
2017-Nov-11 22:24N 40°25' W 073°55'0 0.1
2017-Nov-11 21:57N 40°25' W 073°55'0 0.0
2017-Nov-11 21:12N 40°25' W 073°55'0 0.0
2017-Nov-11 20:54N 40°25' W 073°55'0 0.0
2017-Nov-11 19:54N 40°25' W 073°55'0 0.2
2017-Nov-11 19:30N 40°25' W 073°55'3 6.8
2017-Nov-11 19:00N 40°24' W 073°51'5 8.8
2017-Nov-11 18:27N 40°21' W 073°46'  

Dump ship's entire track history